• location
  • image
Airport

AP V2 EN

 

 

Click here to view short presentation ->

Today

Sunday, 29 March 2015

Weather Forecast

Siauliai 1 °C
   

Aviation Weather Forecast

[source: ADDS]
METAR
EYSA 290650Z VRB01KT 0200 R32R/0325N FG VV001 01/00 Q1009 R32R/29//95 R32L/29//95 =
TAF
TAF EYSA 290500Z 2906/2918 VRB02KT 0500 FZFG VV002 BECMG 2908/2909 15012KT 6000 BKN006 =
SR / SS: 04:06 / 16:58 UTC (EYSA 2015-03-29)

Who's Online

We have 11 guests online

tic logo en